Aviation Weather View - Albury, NSW
Albury
METAR YMAY 170130Z 25007KT 9999 SCT018 12/10 Q1021
ADVISORY INFORMATION ONLY.
Information and images sourced on a "best effort" basis from
our own station 2.7NM north of the field at 1016ft AMSL.
Weather information is NOT from the Albury Airport.

Contact Ross on 0409-578-660
Updated 0155Z (17-May-2022 at 11:55:09 local)
Temperature 11.7 Deg C
QNH is 1021
Humidity is 100% RH
Dewpoint is 11.7 Deg C
Estimated Cloudbase is BELOW 1000 feet amsl
Wind: 5 KT, gusting to 9 KT from 248 degrees magnetic (236 true)
Runway 07 Crosswind 0KT Right to Left 5KT downwind
Runway 25 Crosswind 0KT Left to Right
Wind last 10 minutes: Average 5 KT
Solar Insolation: 525 W/m^2

TWR: 123.25 SMC: 121.8 AWIS: 134.525 ATIS: 115.6/133.85 Map
How to interpret the wind rose
Wind Rose
Solar Radiation Decoded METAR data
Albury Airport (94896, YMAY)
WMO Index: 95896
ID Name: YMAY
Date/Time: 17-May-2022 0130 UTC
Lat/Lon: 36.07S 146.95E
Wind: 250 deg true at 07.0 knots
Temperature: 12.3 deg C
Dewpoint: 9.5 deg C
QNH: 1021.4
Rain since 9am: 0.0
Rain last 10 mins: 0.0
Visibility: -9999 metres
AutoVisibility: 10000 metres
Max Wind Gust last 10 mins: 11.0 knots
Scattered 540m (1771ft)

Calculated humidity: 83.0 %RH